sensor_id;sensor_type;location;lat;lon;timestamp;P1;durP1;ratioP1;P2;durP2;ratioP2
50417;SDS011;36346;48.280;14.292;2024-02-14T00:00:24;11.64;;;11.63;;
50417;SDS011;36346;48.280;14.292;2024-02-14T00:02:52;11.36;;;11.35;;
50417;SDS011;36346;48.280;14.292;2024-02-14T00:05:21;10.90;;;10.90;;
50417;SDS011;36346;48.280;14.292;2024-02-14T00:07:50;11.02;;;11.02;;
50417;SDS011;36346;48.280;14.292;2024-02-14T00:10:18;11.41;;;11.41;;
50417;SDS011;36346;48.280;14.292;2024-02-14T00:12:46;10.90;;;10.90;;
50417;SDS011;36346;48.280;14.292;2024-02-14T00:15:16;10.69;;;10.69;;
50417;SDS011;36346;48.280;14.292;2024-02-14T00:17:44;11.29;;;11.29;;
50417;SDS011;36346;48.280;14.292;2024-02-14T00:20:13;11.11;;;11.10;;
50417;SDS011;36346;48.280;14.292;2024-02-14T00:22:50;11.63;;;11.63;;
50417;SDS011;36346;48.280;14.292;2024-02-14T00:25:18;11.18;;;11.18;;
50417;SDS011;36346;48.280;14.292;2024-02-14T00:27:49;11.36;;;11.35;;
50417;SDS011;36346;48.280;14.292;2024-02-14T00:30:17;11.82;;;11.82;;
50417;SDS011;36346;48.280;14.292;2024-02-14T00:33:05;11.03;;;11.02;;
50417;SDS011;36346;48.280;14.292;2024-02-14T00:35:35;11.93;;;11.88;;
50417;SDS011;36346;48.280;14.292;2024-02-14T00:38:03;11.06;;;11.05;;
50417;SDS011;36346;48.280;14.292;2024-02-14T00:40:31;11.23;;;11.22;;
50417;SDS011;36346;48.280;14.292;2024-02-14T00:51:36;11.78;;;11.77;;
50417;SDS011;36346;48.280;14.292;2024-02-14T00:54:42;11.22;;;11.22;;
50417;SDS011;36346;48.280;14.292;2024-02-14T00:58:05;10.95;;;10.95;;
50417;SDS011;36346;48.280;14.292;2024-02-14T01:01:27;11.08;;;11.07;;
50417;SDS011;36346;48.280;14.292;2024-02-14T01:04:50;10.16;;;10.15;;
50417;SDS011;36346;48.280;14.292;2024-02-14T01:08:13;9.91;;;9.91;;
50417;SDS011;36346;48.280;14.292;2024-02-14T01:11:37;10.19;;;10.18;;
50417;SDS011;36346;48.280;14.292;2024-02-14T01:15:00;10.65;;;10.64;;
50417;SDS011;36346;48.280;14.292;2024-02-14T01:18:23;10.35;;;10.35;;
50417;SDS011;36346;48.280;14.292;2024-02-14T01:21:47;10.29;;;10.27;;
50417;SDS011;36346;48.280;14.292;2024-02-14T01:25:13;10.13;;;10.12;;
50417;SDS011;36346;48.280;14.292;2024-02-14T01:28:36;9.92;;;9.92;;
50417;SDS011;36346;48.280;14.292;2024-02-14T01:31:58;10.83;;;10.83;;
50417;SDS011;36346;48.280;14.292;2024-02-14T01:35:21;10.59;;;10.59;;
50417;SDS011;36346;48.280;14.292;2024-02-14T01:38:45;10.19;;;10.19;;
50417;SDS011;36346;48.280;14.292;2024-02-14T01:42:08;10.09;;;10.08;;
50417;SDS011;36346;48.280;14.292;2024-02-14T01:45:31;10.68;;;10.68;;
50417;SDS011;36346;48.280;14.292;2024-02-14T01:48:54;10.07;;;10.06;;
50417;SDS011;36346;48.280;14.292;2024-02-14T01:52:18;10.06;;;10.05;;
50417;SDS011;36346;48.280;14.292;2024-02-14T01:55:41;9.90;;;9.90;;
50417;SDS011;36346;48.280;14.292;2024-02-14T01:59:04;9.53;;;9.52;;
50417;SDS011;36346;48.280;14.292;2024-02-14T02:02:28;9.60;;;9.59;;
50417;SDS011;36346;48.280;14.292;2024-02-14T02:05:51;9.62;;;9.61;;
50417;SDS011;36346;48.280;14.292;2024-02-14T02:09:15;9.41;;;9.41;;
50417;SDS011;36346;48.280;14.292;2024-02-14T02:12:38;9.62;;;9.62;;
50417;SDS011;36346;48.280;14.292;2024-02-14T02:16:02;9.34;;;9.34;;
50417;SDS011;36346;48.280;14.292;2024-02-14T02:19:27;9.59;;;9.59;;
50417;SDS011;36346;48.280;14.292;2024-02-14T02:22:51;12.41;;;11.85;;
50417;SDS011;36346;48.280;14.292;2024-02-14T02:26:14;10.97;;;10.66;;
50417;SDS011;36346;48.280;14.292;2024-02-14T02:29:38;10.11;;;10.10;;
50417;SDS011;36346;48.280;14.292;2024-02-14T02:33:01;10.11;;;10.11;;
50417;SDS011;36346;48.280;14.292;2024-02-14T02:36:25;9.93;;;9.92;;
50417;SDS011;36346;48.280;14.292;2024-02-14T02:39:51;10.04;;;10.04;;
50417;SDS011;36346;48.280;14.292;2024-02-14T02:43:14;10.06;;;10.06;;
50417;SDS011;36346;48.280;14.292;2024-02-14T02:46:37;10.52;;;10.51;;
50417;SDS011;36346;48.280;14.292;2024-02-14T02:50:01;10.76;;;10.75;;
50417;SDS011;36346;48.280;14.292;2024-02-14T02:53:25;10.06;;;10.06;;
50417;SDS011;36346;48.280;14.292;2024-02-14T02:56:49;10.03;;;10.03;;
50417;SDS011;36346;48.280;14.292;2024-02-14T03:00:12;10.58;;;10.57;;
50417;SDS011;36346;48.280;14.292;2024-02-14T03:03:36;11.02;;;11.02;;
50417;SDS011;36346;48.280;14.292;2024-02-14T03:07:01;11.23;;;11.23;;
50417;SDS011;36346;48.280;14.292;2024-02-14T03:10:29;11.35;;;11.29;;
50417;SDS011;36346;48.280;14.292;2024-02-14T03:13:52;10.99;;;10.96;;
50417;SDS011;36346;48.280;14.292;2024-02-14T03:17:15;11.18;;;11.18;;
50417;SDS011;36346;48.280;14.292;2024-02-14T03:20:38;10.76;;;10.76;;
50417;SDS011;36346;48.280;14.292;2024-02-14T03:24:01;10.87;;;10.85;;
50417;SDS011;36346;48.280;14.292;2024-02-14T03:27:27;11.15;;;11.15;;
50417;SDS011;36346;48.280;14.292;2024-02-14T03:30:52;10.95;;;10.94;;
50417;SDS011;36346;48.280;14.292;2024-02-14T03:34:15;11.18;;;11.17;;
50417;SDS011;36346;48.280;14.292;2024-02-14T03:37:38;11.44;;;11.42;;
50417;SDS011;36346;48.280;14.292;2024-02-14T03:41:02;10.91;;;10.88;;
50417;SDS011;36346;48.280;14.292;2024-02-14T03:44:25;11.03;;;10.98;;
50417;SDS011;36346;48.280;14.292;2024-02-14T03:47:48;11.42;;;11.39;;
50417;SDS011;36346;48.280;14.292;2024-02-14T03:51:12;11.90;;;11.88;;
50417;SDS011;36346;48.280;14.292;2024-02-14T03:54:36;10.84;;;10.82;;
50417;SDS011;36346;48.280;14.292;2024-02-14T03:57:59;11.69;;;11.69;;
50417;SDS011;36346;48.280;14.292;2024-02-14T04:01:22;11.75;;;11.72;;
50417;SDS011;36346;48.280;14.292;2024-02-14T04:04:46;12.73;;;12.72;;
50417;SDS011;36346;48.280;14.292;2024-02-14T04:08:10;11.92;;;11.88;;
50417;SDS011;36346;48.280;14.292;2024-02-14T04:11:33;12.14;;;12.09;;
50417;SDS011;36346;48.280;14.292;2024-02-14T04:14:57;11.72;;;11.71;;
50417;SDS011;36346;48.280;14.292;2024-02-14T04:18:20;11.36;;;11.34;;
50417;SDS011;36346;48.280;14.292;2024-02-14T04:21:43;11.56;;;11.56;;
50417;SDS011;36346;48.280;14.292;2024-02-14T04:25:07;11.69;;;11.67;;
50417;SDS011;36346;48.280;14.292;2024-02-14T04:28:30;12.05;;;12.02;;
50417;SDS011;36346;48.280;14.292;2024-02-14T04:31:53;11.81;;;11.81;;
50417;SDS011;36346;48.280;14.292;2024-02-14T04:35:16;11.25;;;11.24;;
50417;SDS011;36346;48.280;14.292;2024-02-14T04:38:39;11.50;;;11.49;;
50417;SDS011;36346;48.280;14.292;2024-02-14T04:42:03;11.37;;;11.37;;
50417;SDS011;36346;48.280;14.292;2024-02-14T04:45:27;12.16;;;12.15;;
50417;SDS011;36346;48.280;14.292;2024-02-14T04:48:50;12.25;;;12.24;;
50417;SDS011;36346;48.280;14.292;2024-02-14T04:52:13;12.49;;;12.49;;
50417;SDS011;36346;48.280;14.292;2024-02-14T04:55:35;12.93;;;12.92;;
50417;SDS011;36346;48.280;14.292;2024-02-14T04:58:58;12.78;;;12.77;;
50417;SDS011;36346;48.280;14.292;2024-02-14T05:02:21;13.01;;;13.01;;
50417;SDS011;36346;48.280;14.292;2024-02-14T05:05:44;12.58;;;12.57;;
50417;SDS011;36346;48.280;14.292;2024-02-14T05:09:07;12.53;;;12.52;;
50417;SDS011;36346;48.280;14.292;2024-02-14T05:12:31;12.93;;;12.93;;
50417;SDS011;36346;48.280;14.292;2024-02-14T05:15:54;12.54;;;12.54;;
50417;SDS011;36346;48.280;14.292;2024-02-14T05:19:18;12.69;;;12.67;;
50417;SDS011;36346;48.280;14.292;2024-02-14T05:22:43;12.62;;;12.62;;
50417;SDS011;36346;48.280;14.292;2024-02-14T05:26:06;12.83;;;12.83;;
50417;SDS011;36346;48.280;14.292;2024-02-14T05:29:29;12.97;;;12.97;;
50417;SDS011;36346;48.280;14.292;2024-02-14T05:32:52;13.02;;;13.00;;
50417;SDS011;36346;48.280;14.292;2024-02-14T05:36:15;13.24;;;13.24;;
50417;SDS011;36346;48.280;14.292;2024-02-14T05:39:57;14.05;;;14.05;;
50417;SDS011;36346;48.280;14.292;2024-02-14T05:43:20;14.35;;;14.33;;
50417;SDS011;36346;48.280;14.292;2024-02-14T05:46:43;15.24;;;15.23;;
50417;SDS011;36346;48.280;14.292;2024-02-14T05:50:07;15.00;;;15.00;;
50417;SDS011;36346;48.280;14.292;2024-02-14T05:53:31;14.78;;;14.77;;
50417;SDS011;36346;48.280;14.292;2024-02-14T05:56:55;14.27;;;14.27;;
50417;SDS011;36346;48.280;14.292;2024-02-14T06:00:20;15.03;;;15.02;;
50417;SDS011;36346;48.280;14.292;2024-02-14T06:03:57;14.42;;;14.40;;
50417;SDS011;36346;48.280;14.292;2024-02-14T06:10:18;14.26;;;14.26;;
50417;SDS011;36346;48.280;14.292;2024-02-14T06:12:46;14.40;;;14.40;;
50417;SDS011;36346;48.280;14.292;2024-02-14T06:15:15;14.73;;;14.73;;
50417;SDS011;36346;48.280;14.292;2024-02-14T06:17:44;14.69;;;14.68;;
50417;SDS011;36346;48.280;14.292;2024-02-14T06:20:12;15.68;;;15.68;;
50417;SDS011;36346;48.280;14.292;2024-02-14T06:22:40;15.65;;;15.65;;
50417;SDS011;36346;48.280;14.292;2024-02-14T06:25:20;15.65;;;15.64;;
50417;SDS011;36346;48.280;14.292;2024-02-14T06:27:58;15.09;;;15.02;;
50417;SDS011;36346;48.280;14.292;2024-02-14T06:30:26;14.99;;;14.96;;
50417;SDS011;36346;48.280;14.292;2024-02-14T06:32:58;14.60;;;14.58;;
50417;SDS011;36346;48.280;14.292;2024-02-14T06:35:29;14.35;;;14.33;;
50417;SDS011;36346;48.280;14.292;2024-02-14T06:37:59;14.60;;;14.59;;
50417;SDS011;36346;48.280;14.292;2024-02-14T06:40:33;14.31;;;14.31;;
50417;SDS011;36346;48.280;14.292;2024-02-14T06:43:01;16.21;;;16.17;;
50417;SDS011;36346;48.280;14.292;2024-02-14T06:45:30;17.26;;;17.22;;
50417;SDS011;36346;48.280;14.292;2024-02-14T06:48:08;16.58;;;16.57;;
50417;SDS011;36346;48.280;14.292;2024-02-14T06:50:36;16.51;;;16.50;;
50417;SDS011;36346;48.280;14.292;2024-02-14T06:53:05;16.65;;;16.63;;
50417;SDS011;36346;48.280;14.292;2024-02-14T06:55:33;16.90;;;16.90;;
50417;SDS011;36346;48.280;14.292;2024-02-14T06:58:01;16.26;;;16.26;;
50417;SDS011;36346;48.280;14.292;2024-02-14T07:00:32;16.43;;;16.43;;
50417;SDS011;36346;48.280;14.292;2024-02-14T07:03:02;15.87;;;15.85;;
50417;SDS011;36346;48.280;14.292;2024-02-14T07:05:30;16.23;;;16.22;;
50417;SDS011;36346;48.280;14.292;2024-02-14T07:07:58;16.67;;;16.66;;
50417;SDS011;36346;48.280;14.292;2024-02-14T07:10:26;16.15;;;16.14;;
50417;SDS011;36346;48.280;14.292;2024-02-14T07:12:56;15.46;;;15.46;;
50417;SDS011;36346;48.280;14.292;2024-02-14T07:15:24;14.84;;;14.84;;
50417;SDS011;36346;48.280;14.292;2024-02-14T07:17:56;14.13;;;14.11;;
50417;SDS011;36346;48.280;14.292;2024-02-14T07:20:26;13.62;;;13.62;;
50417;SDS011;36346;48.280;14.292;2024-02-14T07:22:54;13.79;;;13.79;;
50417;SDS011;36346;48.280;14.292;2024-02-14T07:25:24;13.50;;;13.50;;
50417;SDS011;36346;48.280;14.292;2024-02-14T07:27:52;13.12;;;13.12;;
50417;SDS011;36346;48.280;14.292;2024-02-14T07:30:20;11.80;;;11.77;;
50417;SDS011;36346;48.280;14.292;2024-02-14T07:32:48;12.84;;;12.84;;
50417;SDS011;36346;48.280;14.292;2024-02-14T07:35:18;13.15;;;13.14;;
50417;SDS011;36346;48.280;14.292;2024-02-14T07:37:46;13.47;;;13.47;;
50417;SDS011;36346;48.280;14.292;2024-02-14T07:40:16;13.26;;;13.26;;
50417;SDS011;36346;48.280;14.292;2024-02-14T07:43:04;13.40;;;13.40;;
50417;SDS011;36346;48.280;14.292;2024-02-14T07:45:34;13.61;;;13.59;;
50417;SDS011;36346;48.280;14.292;2024-02-14T07:48:02;13.90;;;13.90;;
50417;SDS011;36346;48.280;14.292;2024-02-14T07:50:33;13.92;;;13.92;;
50417;SDS011;36346;48.280;14.292;2024-02-14T07:53:01;14.53;;;14.53;;
50417;SDS011;36346;48.280;14.292;2024-02-14T07:55:29;14.35;;;14.35;;
50417;SDS011;36346;48.280;14.292;2024-02-14T07:57:57;15.01;;;15.01;;
50417;SDS011;36346;48.280;14.292;2024-02-14T08:00:28;15.36;;;15.36;;
50417;SDS011;36346;48.280;14.292;2024-02-14T08:02:56;15.80;;;15.80;;
50417;SDS011;36346;48.280;14.292;2024-02-14T08:05:24;15.48;;;15.46;;
50417;SDS011;36346;48.280;14.292;2024-02-14T08:07:53;15.53;;;15.52;;
50417;SDS011;36346;48.280;14.292;2024-02-14T08:10:20;14.11;;;14.11;;
50417;SDS011;36346;48.280;14.292;2024-02-14T08:12:49;13.65;;;13.65;;
50417;SDS011;36346;48.280;14.292;2024-02-14T08:15:16;13.55;;;13.53;;
50417;SDS011;36346;48.280;14.292;2024-02-14T08:17:45;13.61;;;13.60;;
50417;SDS011;36346;48.280;14.292;2024-02-14T08:20:14;12.55;;;12.54;;
50417;SDS011;36346;48.280;14.292;2024-02-14T08:22:52;11.55;;;11.55;;
50417;SDS011;36346;48.280;14.292;2024-02-14T08:25:20;10.82;;;10.82;;
50417;SDS011;36346;48.280;14.292;2024-02-14T08:27:48;10.67;;;10.67;;
50417;SDS011;36346;48.280;14.292;2024-02-14T08:30:16;10.62;;;10.62;;
50417;SDS011;36346;48.280;14.292;2024-02-14T08:32:44;11.25;;;11.25;;
50417;SDS011;36346;48.280;14.292;2024-02-14T08:35:12;12.89;;;12.89;;
50417;SDS011;36346;48.280;14.292;2024-02-14T08:37:41;13.60;;;13.59;;
50417;SDS011;36346;48.280;14.292;2024-02-14T08:40:09;12.71;;;12.70;;
50417;SDS011;36346;48.280;14.292;2024-02-14T08:42:40;13.80;;;13.80;;
50417;SDS011;36346;48.280;14.292;2024-02-14T08:45:08;13.47;;;13.47;;
50417;SDS011;36346;48.280;14.292;2024-02-14T08:47:37;13.22;;;13.22;;
50417;SDS011;36346;48.280;14.292;2024-02-14T08:50:05;14.94;;;14.93;;
50417;SDS011;36346;48.280;14.292;2024-02-14T08:52:34;15.55;;;15.54;;
50417;SDS011;36346;48.280;14.292;2024-02-14T08:55:02;16.06;;;16.06;;
50417;SDS011;36346;48.280;14.292;2024-02-14T08:57:30;15.31;;;15.30;;
50417;SDS011;36346;48.280;14.292;2024-02-14T08:59:59;14.98;;;14.97;;
50417;SDS011;36346;48.280;14.292;2024-02-14T09:02:30;16.72;;;16.68;;
50417;SDS011;36346;48.280;14.292;2024-02-14T09:04:58;15.68;;;15.67;;
50417;SDS011;36346;48.280;14.292;2024-02-14T09:07:26;14.90;;;14.88;;
50417;SDS011;36346;48.280;14.292;2024-02-14T09:09:54;14.97;;;14.91;;
50417;SDS011;36346;48.280;14.292;2024-02-14T09:12:22;14.99;;;14.98;;
50417;SDS011;36346;48.280;14.292;2024-02-14T09:14:51;15.83;;;15.82;;
50417;SDS011;36346;48.280;14.292;2024-02-14T09:17:19;16.14;;;16.11;;
50417;SDS011;36346;48.280;14.292;2024-02-14T09:19:47;16.58;;;16.57;;
50417;SDS011;36346;48.280;14.292;2024-02-14T09:22:16;16.91;;;16.90;;
50417;SDS011;36346;48.280;14.292;2024-02-14T09:24:49;19.32;;;19.24;;
50417;SDS011;36346;48.280;14.292;2024-02-14T09:27:18;19.38;;;19.33;;
50417;SDS011;36346;48.280;14.292;2024-02-14T09:29:46;18.72;;;18.69;;
50417;SDS011;36346;48.280;14.292;2024-02-14T09:32:14;18.93;;;18.90;;
50417;SDS011;36346;48.280;14.292;2024-02-14T09:34:42;18.08;;;18.04;;
50417;SDS011;36346;48.280;14.292;2024-02-14T09:37:10;18.49;;;18.46;;
50417;SDS011;36346;48.280;14.292;2024-02-14T09:39:39;18.41;;;18.38;;
50417;SDS011;36346;48.280;14.292;2024-02-14T09:42:08;18.35;;;18.33;;
50417;SDS011;36346;48.280;14.292;2024-02-14T09:44:37;17.36;;;17.36;;
50417;SDS011;36346;48.280;14.292;2024-02-14T09:47:08;17.40;;;17.39;;
50417;SDS011;36346;48.280;14.292;2024-02-14T09:49:37;17.76;;;17.71;;
50417;SDS011;36346;48.280;14.292;2024-02-14T09:52:06;17.42;;;17.40;;
50417;SDS011;36346;48.280;14.292;2024-02-14T09:54:36;18.00;;;18.00;;
50417;SDS011;36346;48.280;14.292;2024-02-14T09:57:06;17.90;;;17.89;;
50417;SDS011;36346;48.280;14.292;2024-02-14T09:59:35;18.37;;;18.36;;
50417;SDS011;36346;48.280;14.292;2024-02-14T10:02:05;18.00;;;17.86;;
50417;SDS011;36346;48.280;14.292;2024-02-14T10:04:33;18.02;;;17.98;;
50417;SDS011;36346;48.280;14.292;2024-02-14T10:07:01;16.95;;;16.93;;
50417;SDS011;36346;48.280;14.292;2024-02-14T10:09:29;16.54;;;16.46;;
50417;SDS011;36346;48.280;14.292;2024-02-14T10:11:57;15.57;;;15.56;;
50417;SDS011;36346;48.280;14.292;2024-02-14T10:14:26;14.82;;;14.82;;
50417;SDS011;36346;48.280;14.292;2024-02-14T10:16:54;15.03;;;15.03;;
50417;SDS011;36346;48.280;14.292;2024-02-14T10:19:22;14.70;;;14.68;;
50417;SDS011;36346;48.280;14.292;2024-02-14T10:22:00;14.04;;;14.01;;
50417;SDS011;36346;48.280;14.292;2024-02-14T10:24:30;13.29;;;13.29;;
50417;SDS011;36346;48.280;14.292;2024-02-14T10:26:58;13.52;;;13.52;;
50417;SDS011;36346;48.280;14.292;2024-02-14T10:29:27;13.01;;;12.98;;
50417;SDS011;36346;48.280;14.292;2024-02-14T10:31:55;12.92;;;12.89;;
50417;SDS011;36346;48.280;14.292;2024-02-14T10:34:24;13.23;;;13.22;;
50417;SDS011;36346;48.280;14.292;2024-02-14T10:36:53;12.06;;;12.06;;
50417;SDS011;36346;48.280;14.292;2024-02-14T10:39:25;11.62;;;11.61;;
50417;SDS011;36346;48.280;14.292;2024-02-14T10:41:54;12.13;;;12.13;;
50417;SDS011;36346;48.280;14.292;2024-02-14T10:44:22;12.31;;;12.27;;
50417;SDS011;36346;48.280;14.292;2024-02-14T10:46:51;12.23;;;12.23;;
50417;SDS011;36346;48.280;14.292;2024-02-14T10:49:20;12.37;;;12.37;;
50417;SDS011;36346;48.280;14.292;2024-02-14T10:51:50;11.09;;;11.09;;
50417;SDS011;36346;48.280;14.292;2024-02-14T10:54:21;11.34;;;11.30;;
50417;SDS011;36346;48.280;14.292;2024-02-14T10:56:49;11.29;;;11.27;;
50417;SDS011;36346;48.280;14.292;2024-02-14T10:59:21;11.08;;;11.06;;
50417;SDS011;36346;48.280;14.292;2024-02-14T11:01:52;11.37;;;11.36;;
50417;SDS011;36346;48.280;14.292;2024-02-14T11:04:20;11.48;;;11.48;;
50417;SDS011;36346;48.280;14.292;2024-02-14T11:06:52;11.75;;;11.75;;
50417;SDS011;36346;48.280;14.292;2024-02-14T11:09:33;11.39;;;11.39;;
50417;SDS011;36346;48.280;14.292;2024-02-14T11:12:07;10.92;;;10.92;;
50417;SDS011;36346;48.280;14.292;2024-02-14T11:14:41;11.83;;;11.82;;
50417;SDS011;36346;48.280;14.292;2024-02-14T11:17:14;12.66;;;12.65;;
50417;SDS011;36346;48.280;14.292;2024-02-14T11:19:47;12.55;;;12.55;;
50417;SDS011;36346;48.280;14.292;2024-02-14T11:22:19;13.14;;;13.14;;
50417;SDS011;36346;48.280;14.292;2024-02-14T11:24:49;12.95;;;12.95;;
50417;SDS011;36346;48.280;14.292;2024-02-14T11:27:17;13.65;;;13.65;;
50417;SDS011;36346;48.280;14.292;2024-02-14T11:30:01;13.26;;;13.25;;
50417;SDS011;36346;48.280;14.292;2024-02-14T11:32:33;12.84;;;12.84;;
50417;SDS011;36346;48.280;14.292;2024-02-14T11:35:01;12.90;;;12.90;;
50417;SDS011;36346;48.280;14.292;2024-02-14T11:37:30;13.56;;;13.56;;
50417;SDS011;36346;48.280;14.292;2024-02-14T11:40:01;13.70;;;13.70;;
50417;SDS011;36346;48.280;14.292;2024-02-14T11:42:37;13.22;;;13.22;;
50417;SDS011;36346;48.280;14.292;2024-02-14T11:45:05;13.29;;;13.29;;
50417;SDS011;36346;48.280;14.292;2024-02-14T11:47:33;13.45;;;13.45;;
50417;SDS011;36346;48.280;14.292;2024-02-14T11:50:02;12.46;;;12.46;;
50417;SDS011;36346;48.280;14.292;2024-02-14T11:52:31;13.17;;;13.17;;
50417;SDS011;36346;48.280;14.292;2024-02-14T11:54:59;11.13;;;11.13;;
50417;SDS011;36346;48.280;14.292;2024-02-14T11:57:27;11.12;;;11.12;;
50417;SDS011;36346;48.280;14.292;2024-02-14T11:59:55;9.74;;;9.74;;
50417;SDS011;36346;48.280;14.292;2024-02-14T12:02:25;11.43;;;11.43;;
50417;SDS011;36346;48.280;14.292;2024-02-14T12:04:53;10.54;;;10.54;;
50417;SDS011;36346;48.280;14.292;2024-02-14T12:07:24;10.45;;;10.45;;
50417;SDS011;36346;48.280;14.292;2024-02-14T12:09:54;10.17;;;10.17;;
50417;SDS011;36346;48.280;14.292;2024-02-14T12:12:23;10.07;;;10.07;;
50417;SDS011;36346;48.280;14.292;2024-02-14T12:14:52;10.78;;;10.78;;
50417;SDS011;36346;48.280;14.292;2024-02-14T12:17:24;12.43;;;12.43;;
50417;SDS011;36346;48.280;14.292;2024-02-14T12:19:54;9.98;;;9.98;;
50417;SDS011;36346;48.280;14.292;2024-02-14T12:22:33;9.75;;;9.75;;
50417;SDS011;36346;48.280;14.292;2024-02-14T12:25:01;9.95;;;9.95;;
50417;SDS011;36346;48.280;14.292;2024-02-14T12:27:31;9.83;;;9.83;;
50417;SDS011;36346;48.280;14.292;2024-02-14T12:30:04;9.51;;;9.51;;
50417;SDS011;36346;48.280;14.292;2024-02-14T12:32:35;9.25;;;9.25;;
50417;SDS011;36346;48.280;14.292;2024-02-14T12:35:03;8.66;;;8.66;;
50417;SDS011;36346;48.280;14.292;2024-02-14T12:37:35;9.09;;;9.09;;
50417;SDS011;36346;48.280;14.292;2024-02-14T12:40:04;9.26;;;9.26;;
50417;SDS011;36346;48.280;14.292;2024-02-14T12:42:33;8.41;;;8.41;;
50417;SDS011;36346;48.280;14.292;2024-02-14T12:45:01;8.20;;;8.20;;
50417;SDS011;36346;48.280;14.292;2024-02-14T12:47:30;7.74;;;7.74;;
50417;SDS011;36346;48.280;14.292;2024-02-14T12:50:01;8.06;;;8.06;;
50417;SDS011;36346;48.280;14.292;2024-02-14T12:52:29;8.40;;;8.40;;
50417;SDS011;36346;48.280;14.292;2024-02-14T12:54:57;8.31;;;8.31;;
50417;SDS011;36346;48.280;14.292;2024-02-14T12:57:26;8.42;;;8.42;;
50417;SDS011;36346;48.280;14.292;2024-02-14T12:59:54;8.29;;;8.28;;
50417;SDS011;36346;48.280;14.292;2024-02-14T13:02:22;8.30;;;8.30;;
50417;SDS011;36346;48.280;14.292;2024-02-14T13:04:50;8.03;;;8.03;;
50417;SDS011;36346;48.280;14.292;2024-02-14T13:07:18;8.16;;;8.16;;
50417;SDS011;36346;48.280;14.292;2024-02-14T13:09:48;7.89;;;7.89;;
50417;SDS011;36346;48.280;14.292;2024-02-14T13:12:16;7.46;;;7.46;;
50417;SDS011;36346;48.280;14.292;2024-02-14T13:14:44;7.51;;;7.51;;
50417;SDS011;36346;48.280;14.292;2024-02-14T13:17:12;7.41;;;7.41;;
50417;SDS011;36346;48.280;14.292;2024-02-14T13:19:41;9.39;;;9.38;;
50417;SDS011;36346;48.280;14.292;2024-02-14T13:22:10;7.10;;;7.10;;
50417;SDS011;36346;48.280;14.292;2024-02-14T13:24:38;7.40;;;7.40;;
50417;SDS011;36346;48.280;14.292;2024-02-14T13:27:06;6.96;;;6.96;;
50417;SDS011;36346;48.280;14.292;2024-02-14T13:29:35;6.56;;;6.56;;
50417;SDS011;36346;48.280;14.292;2024-02-14T13:32:03;6.67;;;6.67;;
50417;SDS011;36346;48.280;14.292;2024-02-14T13:34:33;6.38;;;6.38;;
50417;SDS011;36346;48.280;14.292;2024-02-14T13:37:01;6.68;;;6.67;;
50417;SDS011;36346;48.280;14.292;2024-02-14T13:39:30;6.30;;;6.30;;
50417;SDS011;36346;48.280;14.292;2024-02-14T13:41:58;6.56;;;6.56;;
50417;SDS011;36346;48.280;14.292;2024-02-14T13:44:28;6.53;;;6.53;;
50417;SDS011;36346;48.280;14.292;2024-02-14T13:46:57;6.53;;;6.53;;
50417;SDS011;36346;48.280;14.292;2024-02-14T13:49:26;6.38;;;6.38;;
50417;SDS011;36346;48.280;14.292;2024-02-14T13:51:55;6.31;;;6.31;;
50417;SDS011;36346;48.280;14.292;2024-02-14T13:54:26;6.19;;;6.19;;
50417;SDS011;36346;48.280;14.292;2024-02-14T13:56:54;7.57;;;7.57;;
50417;SDS011;36346;48.280;14.292;2024-02-14T13:59:24;7.23;;;7.23;;
50417;SDS011;36346;48.280;14.292;2024-02-14T14:01:52;6.00;;;6.00;;
50417;SDS011;36346;48.280;14.292;2024-02-14T14:04:20;6.01;;;6.01;;
50417;SDS011;36346;48.280;14.292;2024-02-14T14:06:48;6.66;;;6.66;;
50417;SDS011;36346;48.280;14.292;2024-02-14T14:09:16;7.24;;;7.24;;
50417;SDS011;36346;48.280;14.292;2024-02-14T14:11:44;7.60;;;7.60;;
50417;SDS011;36346;48.280;14.292;2024-02-14T14:14:17;7.34;;;7.34;;
50417;SDS011;36346;48.280;14.292;2024-02-14T14:16:48;7.15;;;7.15;;
50417;SDS011;36346;48.280;14.292;2024-02-14T14:19:16;7.38;;;7.38;;
50417;SDS011;36346;48.280;14.292;2024-02-14T14:21:44;7.83;;;7.83;;
50417;SDS011;36346;48.280;14.292;2024-02-14T14:24:12;7.90;;;7.90;;
50417;SDS011;36346;48.280;14.292;2024-02-14T14:26:42;8.55;;;8.55;;
50417;SDS011;36346;48.280;14.292;2024-02-14T14:29:15;7.34;;;7.34;;
50417;SDS011;36346;48.280;14.292;2024-02-14T14:31:46;6.98;;;6.95;;
50417;SDS011;36346;48.280;14.292;2024-02-14T14:34:14;6.41;;;6.41;;
50417;SDS011;36346;48.280;14.292;2024-02-14T14:36:43;6.47;;;6.47;;
50417;SDS011;36346;48.280;14.292;2024-02-14T14:39:11;6.68;;;6.68;;
50417;SDS011;36346;48.280;14.292;2024-02-14T14:41:40;6.23;;;6.23;;
50417;SDS011;36346;48.280;14.292;2024-02-14T14:44:09;5.22;;;5.22;;
50417;SDS011;36346;48.280;14.292;2024-02-14T14:46:38;5.03;;;5.03;;
50417;SDS011;36346;48.280;14.292;2024-02-14T14:49:09;4.96;;;4.96;;
50417;SDS011;36346;48.280;14.292;2024-02-14T14:51:37;5.17;;;5.17;;
50417;SDS011;36346;48.280;14.292;2024-02-14T14:54:05;5.02;;;5.02;;
50417;SDS011;36346;48.280;14.292;2024-02-14T14:56:34;4.27;;;4.27;;
50417;SDS011;36346;48.280;14.292;2024-02-14T14:59:02;4.17;;;4.17;;
50417;SDS011;36346;48.280;14.292;2024-02-14T15:01:32;3.99;;;3.99;;
50417;SDS011;36346;48.280;14.292;2024-02-14T15:04:06;3.95;;;3.95;;
50417;SDS011;36346;48.280;14.292;2024-02-14T15:06:35;3.96;;;3.96;;
50417;SDS011;36346;48.280;14.292;2024-02-14T15:09:04;3.97;;;3.97;;
50417;SDS011;36346;48.280;14.292;2024-02-14T15:11:34;4.81;;;4.81;;
50417;SDS011;36346;48.280;14.292;2024-02-14T15:14:03;3.83;;;3.83;;
50417;SDS011;36346;48.280;14.292;2024-02-14T15:16:34;3.99;;;3.99;;
50417;SDS011;36346;48.280;14.292;2024-02-14T15:19:04;4.84;;;4.84;;
50417;SDS011;36346;48.280;14.292;2024-02-14T15:21:33;4.55;;;4.55;;
50417;SDS011;36346;48.280;14.292;2024-02-14T15:24:03;5.28;;;5.27;;
50417;SDS011;36346;48.280;14.292;2024-02-14T15:26:32;5.18;;;5.16;;
50417;SDS011;36346;48.280;14.292;2024-02-14T15:29:17;5.56;;;5.56;;
50417;SDS011;36346;48.280;14.292;2024-02-14T15:32:05;6.95;;;6.88;;
50417;SDS011;36346;48.280;14.292;2024-02-14T15:34:52;5.88;;;5.87;;
50417;SDS011;36346;48.280;14.292;2024-02-14T15:37:21;5.84;;;5.84;;
50417;SDS011;36346;48.280;14.292;2024-02-14T15:39:50;6.08;;;6.08;;
50417;SDS011;36346;48.280;14.292;2024-02-14T15:42:19;5.51;;;5.51;;
50417;SDS011;36346;48.280;14.292;2024-02-14T15:44:48;6.30;;;6.30;;
50417;SDS011;36346;48.280;14.292;2024-02-14T15:47:16;6.30;;;6.30;;
50417;SDS011;36346;48.280;14.292;2024-02-14T15:49:44;5.84;;;5.83;;
50417;SDS011;36346;48.280;14.292;2024-02-14T15:52:12;6.14;;;6.10;;
50417;SDS011;36346;48.280;14.292;2024-02-14T15:54:41;6.04;;;6.03;;
50417;SDS011;36346;48.280;14.292;2024-02-14T15:57:12;5.66;;;5.66;;
50417;SDS011;36346;48.280;14.292;2024-02-14T15:59:40;5.65;;;5.65;;
50417;SDS011;36346;48.280;14.292;2024-02-14T16:02:08;5.70;;;5.70;;
50417;SDS011;36346;48.280;14.292;2024-02-14T16:04:37;7.02;;;7.01;;